createdAt,value
2022-08-16T00:01:24.684Z,2.10
2022-08-16T00:03:53.475Z,2.33
2022-08-16T00:06:21.430Z,2.10
2022-08-16T00:08:49.670Z,2.30
2022-08-16T00:11:16.951Z,2.25
2022-08-16T00:13:53.861Z,2.60
2022-08-16T00:17:01.098Z,2.28
2022-08-16T00:19:24.720Z,1.95
2022-08-16T00:22:01.701Z,2.08
2022-08-16T00:24:34.550Z,2.03
2022-08-16T00:27:03.663Z,2.65
2022-08-16T00:29:31.830Z,2.35
2022-08-16T00:32:06.187Z,2.80
2022-08-16T00:34:44.584Z,2.13
2022-08-16T00:37:24.677Z,3.08
2022-08-16T00:39:57.631Z,2.13
2022-08-16T00:42:31.618Z,2.28
2022-08-16T00:45:36.365Z,1.98
2022-08-16T00:48:31.016Z,2.47
2022-08-16T00:50:55.686Z,2.67
2022-08-16T00:53:23.828Z,2.60
2022-08-16T00:55:57.248Z,2.25
2022-08-16T00:58:34.507Z,2.22
2022-08-16T01:01:08.473Z,2.55
2022-08-16T01:03:41.666Z,2.28
2022-08-16T01:08:59.874Z,2.30
2022-08-16T01:11:29.464Z,2.33
2022-08-16T01:14:04.777Z,2.38
2022-08-16T01:16:32.227Z,2.40
2022-08-16T01:19:13.632Z,2.65
2022-08-16T01:22:57.620Z,2.63
2022-08-16T01:25:02.417Z,2.20
2022-08-16T01:27:39.637Z,2.13
2022-08-16T01:30:29.787Z,2.45
2022-08-16T01:33:14.604Z,2.47
2022-08-16T01:35:52.771Z,2.33
2022-08-16T01:38:49.116Z,1.80
2022-08-16T01:41:30.034Z,1.92
2022-08-16T01:44:01.041Z,2.75
2022-08-16T01:46:40.201Z,2.20
2022-08-16T01:49:11.723Z,2.15
2022-08-16T01:51:43.651Z,2.17
2022-08-16T01:54:13.132Z,2.40
2022-08-16T01:56:40.991Z,2.55
2022-08-16T01:59:15.649Z,2.15
2022-08-16T02:01:49.545Z,1.92
2022-08-16T02:04:48.247Z,3.30
2022-08-16T02:07:08.941Z,2.00
2022-08-16T02:09:39.582Z,2.63
2022-08-16T02:12:49.512Z,2.10
2022-08-16T02:14:57.023Z,2.38
2022-08-16T02:17:28.560Z,2.15
2022-08-16T02:19:58.907Z,2.50
2022-08-16T02:22:35.042Z,2.55
2022-08-16T02:25:16.104Z,2.08
2022-08-16T02:27:45.456Z,2.05
2022-08-16T02:30:36.540Z,2.72
2022-08-16T02:33:10.291Z,1.70
2022-08-16T02:35:53.669Z,1.92
2022-08-16T02:38:21.477Z,2.30
2022-08-16T02:40:48.984Z,2.05
2022-08-16T02:43:16.149Z,1.98
2022-08-16T02:45:43.516Z,2.10
2022-08-16T02:48:29.261Z,2.15
2022-08-16T02:51:10.355Z,2.17
2022-08-16T02:53:43.965Z,2.17
2022-08-16T02:56:17.113Z,2.13
2022-08-16T02:58:49.395Z,2.73
2022-08-16T03:01:36.569Z,2.13
2022-08-16T03:04:41.538Z,1.95
2022-08-16T03:06:56.648Z,2.50
2022-08-16T03:09:28.841Z,1.80
2022-08-16T03:11:57.196Z,1.85
2022-08-16T03:14:25.419Z,2.40
2022-08-16T03:16:59.706Z,2.10
2022-08-16T03:19:48.746Z,2.20
2022-08-16T03:22:29.009Z,1.88
2022-08-16T03:25:02.087Z,2.22
2022-08-16T03:27:33.708Z,2.38
2022-08-16T03:30:23.842Z,2.25
2022-08-16T03:32:52.139Z,2.63
2022-08-16T03:35:23.099Z,2.15
2022-08-16T03:38:02.537Z,1.75
2022-08-16T03:40:34.035Z,2.13
2022-08-16T03:43:20.688Z,2.28
2022-08-16T03:45:49.629Z,2.15
2022-08-16T03:48:36.265Z,1.92
2022-08-16T03:51:08.619Z,1.88
2022-08-16T03:53:38.161Z,2.53
2022-08-16T03:56:07.940Z,2.10
2022-08-16T03:58:45.849Z,1.98
2022-08-16T04:01:15.293Z,1.88
2022-08-16T04:03:44.206Z,2.42
2022-08-16T04:06:11.247Z,2.05
2022-08-16T04:08:39.529Z,2.33
2022-08-16T04:11:06.890Z,2.10
2022-08-16T04:14:00.921Z,2.03
2022-08-16T04:16:27.470Z,2.63
2022-08-16T04:19:02.233Z,1.80
2022-08-16T04:21:33.389Z,2.38
2022-08-16T04:24:02.205Z,2.35
2022-08-16T04:26:30.974Z,2.47
2022-08-16T04:29:17.017Z,1.77
2022-08-16T04:31:56.095Z,1.90
2022-08-16T04:34:29.234Z,1.70
2022-08-16T04:37:01.078Z,2.42
2022-08-16T04:39:36.596Z,2.08
2022-08-16T04:42:13.257Z,1.60
2022-08-16T04:44:54.320Z,1.83
2022-08-16T04:47:31.656Z,2.10
2022-08-16T04:50:12.690Z,2.28
2022-08-16T04:52:42.324Z,1.90
2022-08-16T04:55:17.426Z,1.63
2022-08-16T04:57:53.755Z,1.90
2022-08-16T05:00:32.373Z,2.10
2022-08-16T05:03:07.397Z,2.75
2022-08-16T05:05:45.078Z,2.25
2022-08-16T05:08:29.654Z,2.63
2022-08-16T05:11:05.380Z,2.30
2022-08-16T05:13:40.614Z,2.00
2022-08-16T05:16:20.313Z,2.40
2022-08-16T05:18:51.093Z,1.98
2022-08-16T05:21:20.937Z,2.30
2022-08-16T05:23:51.787Z,1.83
2022-08-16T05:26:27.978Z,2.45
2022-08-16T05:28:57.406Z,2.63
2022-08-16T05:31:30.377Z,2.00
2022-08-16T05:34:00.243Z,2.88
2022-08-16T05:36:33.862Z,2.50
2022-08-16T05:39:04.413Z,2.30
2022-08-16T05:41:31.243Z,2.08
2022-08-16T05:44:05.278Z,3.13
2022-08-16T05:46:32.690Z,3.05
2022-08-16T05:49:05.777Z,3.92
2022-08-16T05:51:40.185Z,4.82
2022-08-16T05:54:11.439Z,6.85
2022-08-16T05:56:42.914Z,7.47
2022-08-16T05:59:10.784Z,4.60
2022-08-16T06:01:39.644Z,2.90
2022-08-16T06:04:13.357Z,2.50
2022-08-16T06:06:56.956Z,2.63
2022-08-16T06:09:42.816Z,2.53
2022-08-16T06:12:28.033Z,2.88
2022-08-16T06:15:07.848Z,2.38
2022-08-16T06:17:41.554Z,2.58
2022-08-16T06:20:18.518Z,2.13
2022-08-16T06:22:58.551Z,1.88
2022-08-16T06:25:36.523Z,1.95
2022-08-16T06:28:17.055Z,2.33
2022-08-16T06:30:57.841Z,2.22
2022-08-16T06:33:24.870Z,2.40
2022-08-16T06:35:54.962Z,2.05
2022-08-16T06:38:32.881Z,2.08
2022-08-16T06:41:06.314Z,2.50
2022-08-16T06:43:40.695Z,1.83
2022-08-16T06:46:12.873Z,2.50
2022-08-16T06:48:43.192Z,1.87
2022-08-16T06:51:10.841Z,2.58
2022-08-16T06:53:38.154Z,2.65
2022-08-16T06:56:14.747Z,2.50
2022-08-16T06:58:52.677Z,1.85
2022-08-16T07:01:43.270Z,2.78
2022-08-16T07:04:10.354Z,1.98
2022-08-16T07:06:40.298Z,2.20
2022-08-16T07:09:15.936Z,2.40
2022-08-16T07:11:47.420Z,2.05
2022-08-16T07:14:23.796Z,2.22
2022-08-16T07:16:55.180Z,1.95
2022-08-16T07:19:22.033Z,1.92
2022-08-16T07:22:37.528Z,2.03
2022-08-16T07:24:55.733Z,1.70
2022-08-16T07:27:22.533Z,2.35
2022-08-16T07:29:51.630Z,2.20
2022-08-16T07:32:29.442Z,2.13
2022-08-16T07:34:58.549Z,1.98
2022-08-16T07:37:25.680Z,2.17
2022-08-16T07:39:54.630Z,2.55
2022-08-16T07:42:28.649Z,2.38
2022-08-16T07:45:10.076Z,1.80
2022-08-16T07:47:37.333Z,2.58
2022-08-16T07:50:05.700Z,2.35
2022-08-16T07:52:34.984Z,1.85
2022-08-16T07:55:07.445Z,1.85
2022-08-16T07:57:44.282Z,2.20
2022-08-16T08:00:21.446Z,2.13
2022-08-16T08:02:53.724Z,2.20
2022-08-16T08:05:25.566Z,2.20
2022-08-16T08:08:11.983Z,2.22
2022-08-16T08:10:51.295Z,2.17
2022-08-16T08:13:18.413Z,2.35
2022-08-16T08:15:52.528Z,2.42
2022-08-16T08:18:30.586Z,2.40
2022-08-16T08:20:59.506Z,2.67
2022-08-16T08:23:27.749Z,2.90
2022-08-16T08:25:55.943Z,3.00
2022-08-16T08:28:23.209Z,3.13
2022-08-16T08:31:01.477Z,2.97
2022-08-16T08:33:31.663Z,2.53
2022-08-16T08:36:01.476Z,2.63
2022-08-16T08:38:44.049Z,2.90
2022-08-16T08:41:18.298Z,3.72
2022-08-16T08:46:18.293Z,2.92
2022-08-16T08:49:00.019Z,2.70
2022-08-16T08:51:32.096Z,2.72
2022-08-16T08:54:06.535Z,3.20
2022-08-16T08:56:37.559Z,3.55
2022-08-16T08:59:16.422Z,2.75
2022-08-16T09:01:57.311Z,2.95
2022-08-16T09:04:27.350Z,3.60
2022-08-16T09:06:56.003Z,3.08
2022-08-16T09:09:25.185Z,2.65
2022-08-16T09:11:53.493Z,3.25
2022-08-16T09:14:24.140Z,2.75
2022-08-16T09:17:01.662Z,2.60
2022-08-16T09:19:32.877Z,2.50
2022-08-16T09:22:01.170Z,3.58
2022-08-16T09:24:46.388Z,3.40
2022-08-16T09:27:14.909Z,4.75
2022-08-16T09:29:44.546Z,3.40
2022-08-16T09:32:28.781Z,3.08
2022-08-16T09:34:58.370Z,3.35
2022-08-16T09:37:36.820Z,3.22
2022-08-16T09:40:32.620Z,2.30
2022-08-16T09:42:58.744Z,2.33
2022-08-16T09:45:28.634Z,2.75
2022-08-16T09:47:57.586Z,2.50
2022-08-16T09:50:37.199Z,2.58
2022-08-16T09:53:16.088Z,2.35
2022-08-16T09:55:49.608Z,2.45
2022-08-16T09:58:41.481Z,2.50
2022-08-16T10:01:11.601Z,2.58
2022-08-16T10:04:01.711Z,3.03
2022-08-16T10:06:33.541Z,2.70
2022-08-16T10:09:08.234Z,2.50
2022-08-16T10:11:55.267Z,3.08
2022-08-16T10:14:24.876Z,2.88
2022-08-16T10:17:04.262Z,2.50
2022-08-16T10:19:32.444Z,2.33
2022-08-16T10:22:04.927Z,1.90
2022-08-16T10:24:33.873Z,2.78
2022-08-16T10:27:26.060Z,2.40
2022-08-16T10:30:00.924Z,2.42
2022-08-16T10:32:35.020Z,2.25
2022-08-16T10:35:03.729Z,2.15
2022-08-16T10:37:32.237Z,2.28
2022-08-16T10:40:05.636Z,2.63
2022-08-16T10:42:32.452Z,2.65
2022-08-16T10:45:00.414Z,2.33
2022-08-16T10:47:30.439Z,2.78
2022-08-16T10:50:00.496Z,2.65
2022-08-16T10:52:27.421Z,2.42
2022-08-16T10:55:40.256Z,2.60
2022-08-16T10:57:49.226Z,2.22
2022-08-16T11:00:21.168Z,2.10
2022-08-16T11:02:59.422Z,2.80
2022-08-16T11:08:35.594Z,2.40
2022-08-16T11:11:07.606Z,2.45
2022-08-16T11:17:02.351Z,2.40
2022-08-16T11:19:15.916Z,2.60
2022-08-16T11:24:42.735Z,2.15
2022-08-16T11:27:20.509Z,2.47
2022-08-16T11:29:52.032Z,2.28
2022-08-16T11:32:19.965Z,2.10
2022-08-16T11:35:10.242Z,2.33
2022-08-16T11:38:23.923Z,2.22
2022-08-16T11:40:32.280Z,2.30
2022-08-16T11:43:01.559Z,1.85
2022-08-16T11:45:33.599Z,2.30
2022-08-16T11:48:06.314Z,2.10
2022-08-16T11:50:34.413Z,2.88
2022-08-16T11:53:04.199Z,1.80
2022-08-16T11:55:31.294Z,2.00
2022-08-16T11:57:58.284Z,2.28
2022-08-16T12:00:49.864Z,2.35
2022-08-16T12:03:12.480Z,2.70
2022-08-16T12:05:41.464Z,2.78
2022-08-16T12:08:09.857Z,2.67
2022-08-16T12:10:41.021Z,2.33
2022-08-16T12:13:11.064Z,2.17
2022-08-16T12:15:38.394Z,2.60
2022-08-16T12:18:07.701Z,2.53
2022-08-16T12:20:40.535Z,2.40
2022-08-16T12:23:08.077Z,2.08
2022-08-16T12:25:36.016Z,1.88
2022-08-16T12:28:07.662Z,2.40
2022-08-16T12:30:42.486Z,2.08
2022-08-16T12:33:12.545Z,2.53
2022-08-16T12:35:40.744Z,1.88
2022-08-16T12:38:37.973Z,2.35
2022-08-16T12:40:55.602Z,1.90
2022-08-16T12:43:25.504Z,2.58
2022-08-16T12:45:55.687Z,1.67
2022-08-16T12:48:46.962Z,2.75
2022-08-16T12:51:22.237Z,2.28
2022-08-16T12:53:54.214Z,2.33
2022-08-16T12:56:26.129Z,2.50
2022-08-16T12:58:55.376Z,2.10
2022-08-16T13:01:28.775Z,2.08
2022-08-16T13:04:11.969Z,2.10
2022-08-16T13:06:48.723Z,2.20
2022-08-16T13:09:26.403Z,1.98
2022-08-16T13:12:18.935Z,2.00
2022-08-16T13:14:48.001Z,2.40
2022-08-16T13:17:26.342Z,2.53
2022-08-16T13:20:07.108Z,2.08
2022-08-16T13:22:42.686Z,2.20
2022-08-16T13:25:17.421Z,2.25
2022-08-16T13:28:02.860Z,2.55
2022-08-16T13:30:41.959Z,2.03
2022-08-16T13:33:27.696Z,2.30
2022-08-16T13:36:00.220Z,2.70
2022-08-16T13:38:30.213Z,2.38
2022-08-16T13:41:02.660Z,2.67
2022-08-16T13:43:32.683Z,1.90
2022-08-16T13:46:04.615Z,1.70
2022-08-16T13:48:43.291Z,2.20
2022-08-16T13:51:18.590Z,2.08
2022-08-16T13:53:54.370Z,2.33
2022-08-16T13:56:26.120Z,1.95
2022-08-16T13:59:14.312Z,1.90
2022-08-16T14:01:55.642Z,2.08
2022-08-16T14:04:27.294Z,1.75
2022-08-16T14:06:57.204Z,2.35
2022-08-16T14:09:25.152Z,2.55
2022-08-16T14:11:54.568Z,2.30
2022-08-16T14:14:28.872Z,1.98
2022-08-16T14:16:58.765Z,2.72
2022-08-16T14:19:27.935Z,2.35
2022-08-16T14:22:15.204Z,2.03
2022-08-16T14:24:50.210Z,2.20
2022-08-16T14:27:19.703Z,2.03
2022-08-16T14:29:50.102Z,2.28
2022-08-16T14:32:32.705Z,2.00
2022-08-16T14:35:08.856Z,1.80
2022-08-16T14:37:37.312Z,2.35
2022-08-16T14:40:08.101Z,1.98
2022-08-16T14:42:36.588Z,1.95
2022-08-16T14:45:06.450Z,2.17
2022-08-16T14:47:37.284Z,2.22
2022-08-16T14:50:13.484Z,2.00
2022-08-16T14:52:56.745Z,2.03
2022-08-16T14:55:26.750Z,2.40
2022-08-16T14:57:54.586Z,1.75
2022-08-16T15:00:27.167Z,2.70
2022-08-16T15:03:04.507Z,2.70
2022-08-16T15:08:19.633Z,2.20
2022-08-16T15:10:47.644Z,1.98
2022-08-16T15:13:15.179Z,2.10
2022-08-16T15:15:43.551Z,2.45
2022-08-16T15:18:12.207Z,2.05
2022-08-16T15:20:41.490Z,2.10
2022-08-16T15:23:10.034Z,2.13
2022-08-16T15:25:47.385Z,2.25
2022-08-16T15:28:31.532Z,2.28
2022-08-16T15:31:04.529Z,2.35
2022-08-16T15:33:48.573Z,2.05
2022-08-16T15:36:19.357Z,2.13
2022-08-16T15:38:56.272Z,2.05
2022-08-16T15:41:56.196Z,2.10
2022-08-16T15:44:26.237Z,2.10
2022-08-16T15:46:58.526Z,2.38
2022-08-16T15:49:37.027Z,3.15
2022-08-16T15:52:20.859Z,2.08
2022-08-16T15:54:55.975Z,2.58
2022-08-16T15:57:26.843Z,2.22
2022-08-16T15:59:56.277Z,2.40
2022-08-16T16:02:33.519Z,2.08
2022-08-16T16:05:04.654Z,2.67
2022-08-16T16:07:33.382Z,2.08
2022-08-16T16:10:05.544Z,2.70
2022-08-16T16:12:51.044Z,2.05
2022-08-16T16:15:29.521Z,2.13
2022-08-16T16:17:57.576Z,2.60
2022-08-16T16:20:28.666Z,2.55
2022-08-16T16:23:01.193Z,2.20
2022-08-16T16:25:29.304Z,2.45
2022-08-16T16:27:59.934Z,2.50
2022-08-16T16:30:33.437Z,2.50
2022-08-16T16:33:21.444Z,2.75
2022-08-16T16:35:55.296Z,2.58
2022-08-16T16:38:30.719Z,2.42
2022-08-16T16:41:08.780Z,3.40
2022-08-16T16:43:41.704Z,2.58
2022-08-16T16:46:40.186Z,2.50
2022-08-16T16:48:58.132Z,2.35
2022-08-16T16:51:28.066Z,2.60
2022-08-16T16:53:57.134Z,3.08
2022-08-16T16:56:31.425Z,2.72
2022-08-16T16:59:09.821Z,3.33
2022-08-16T17:01:59.736Z,2.60
2022-08-16T17:04:33.000Z,2.53
2022-08-16T17:07:02.026Z,3.17
2022-08-16T17:09:30.017Z,2.90
2022-08-16T17:11:57.309Z,2.92
2022-08-16T17:14:33.313Z,2.88
2022-08-16T17:17:06.879Z,3.05
2022-08-16T17:19:41.313Z,2.83
2022-08-16T17:22:16.118Z,2.92
2022-08-16T17:24:52.484Z,2.50
2022-08-16T17:27:32.473Z,2.60
2022-08-16T17:30:15.971Z,2.65
2022-08-16T17:35:23.121Z,2.97
2022-08-16T17:37:51.831Z,2.78
2022-08-16T17:40:47.480Z,3.30
2022-08-16T17:43:19.383Z,2.72
2022-08-16T17:45:47.507Z,2.80
2022-08-16T17:48:14.574Z,2.60
2022-08-16T17:50:42.471Z,2.58
2022-08-16T17:53:10.786Z,3.05
2022-08-16T17:55:42.173Z,3.20
2022-08-16T17:58:23.373Z,3.92
2022-08-16T18:00:57.554Z,3.17
2022-08-16T18:04:06.764Z,3.13
2022-08-16T18:06:24.373Z,3.05
2022-08-16T18:08:57.837Z,4.53
2022-08-16T18:11:30.200Z,7.80
2022-08-16T18:13:59.902Z,7.93
2022-08-16T18:16:26.987Z,3.72
2022-08-16T18:18:53.821Z,3.35
2022-08-16T18:21:39.901Z,4.63
2022-08-16T18:24:07.148Z,3.17
2022-08-16T18:26:34.136Z,3.35
2022-08-16T18:29:01.067Z,3.58
2022-08-16T18:31:27.863Z,5.05
2022-08-16T18:33:55.972Z,7.95
2022-08-16T18:36:24.481Z,10.57
2022-08-16T18:38:53.422Z,8.90
2022-08-16T18:41:23.283Z,4.95
2022-08-16T18:43:54.386Z,5.45
2022-08-16T18:46:48.866Z,8.20
2022-08-16T18:49:18.789Z,9.30
2022-08-16T18:51:45.733Z,7.00
2022-08-16T18:54:18.132Z,4.90
2022-08-16T18:56:55.775Z,5.93
2022-08-16T18:59:29.920Z,4.22
2022-08-16T19:02:00.187Z,3.70
2022-08-16T19:04:56.754Z,3.60
2022-08-16T19:07:21.435Z,3.58
2022-08-16T19:09:48.329Z,4.22
2022-08-16T19:12:16.040Z,3.22
2022-08-16T19:14:45.597Z,3.10
2022-08-16T19:17:12.501Z,3.33
2022-08-16T19:19:39.300Z,3.35
2022-08-16T19:22:06.655Z,3.45
2022-08-16T19:24:33.465Z,3.15
2022-08-16T19:27:01.618Z,3.50
2022-08-16T19:29:29.019Z,4.50
2022-08-16T19:31:55.791Z,3.63
2022-08-16T19:34:22.627Z,3.83
2022-08-16T19:36:49.467Z,3.45
2022-08-16T19:39:17.518Z,2.92
2022-08-16T19:41:53.874Z,3.78
2022-08-16T19:44:22.472Z,3.67
2022-08-16T19:46:49.710Z,3.38
2022-08-16T19:49:17.095Z,4.13
2022-08-16T19:51:45.946Z,3.42
2022-08-16T19:54:12.846Z,3.22
2022-08-16T19:56:39.616Z,3.78
2022-08-16T19:59:39.984Z,4.20
2022-08-16T20:01:53.301Z,3.47
2022-08-16T20:04:22.146Z,3.60
2022-08-16T20:06:49.766Z,3.63
2022-08-16T20:09:16.600Z,3.95
2022-08-16T20:11:48.733Z,3.60
2022-08-16T20:14:24.601Z,3.57
2022-08-16T20:16:57.597Z,3.58
2022-08-16T20:19:29.655Z,3.05
2022-08-16T20:22:42.246Z,4.63
2022-08-16T20:25:12.010Z,4.00
2022-08-16T20:27:40.251Z,3.95
2022-08-16T20:30:09.658Z,3.38
2022-08-16T20:32:37.243Z,3.75
2022-08-16T20:35:07.587Z,4.15
2022-08-16T20:37:37.359Z,3.88
2022-08-16T20:40:33.854Z,3.40
2022-08-16T20:43:16.488Z,3.67
2022-08-16T20:45:45.971Z,3.60
2022-08-16T20:48:13.544Z,3.95
2022-08-16T20:50:41.398Z,4.80
2022-08-16T20:53:09.017Z,4.38
2022-08-16T20:55:37.318Z,4.88
2022-08-16T20:58:04.672Z,4.30
2022-08-16T21:00:33.588Z,3.65
2022-08-16T21:03:05.856Z,3.92
2022-08-16T21:05:32.649Z,4.07
2022-08-16T21:08:00.076Z,3.38
2022-08-16T21:10:27.242Z,5.10
2022-08-16T21:12:59.436Z,3.80
2022-08-16T21:15:27.939Z,3.63
2022-08-16T21:17:54.908Z,4.13
2022-08-16T21:20:23.667Z,3.72
2022-08-16T21:23:10.118Z,4.15
2022-08-16T21:25:42.909Z,4.78
2022-08-16T21:28:40.447Z,3.70
2022-08-16T21:31:11.826Z,4.60
2022-08-16T21:33:39.334Z,3.78
2022-08-16T21:36:06.525Z,3.63
2022-08-16T21:38:33.341Z,4.05
2022-08-16T21:41:01.736Z,4.50
2022-08-16T21:43:32.303Z,4.00
2022-08-16T21:46:04.419Z,3.58
2022-08-16T21:48:36.109Z,4.07
2022-08-16T21:51:06.677Z,4.13
2022-08-16T21:53:34.200Z,3.83
2022-08-16T21:56:01.814Z,4.60
2022-08-16T21:58:30.270Z,4.38
2022-08-16T22:00:57.623Z,4.28
2022-08-16T22:03:25.012Z,4.97
2022-08-16T22:06:12.186Z,4.05
2022-08-16T22:08:50.557Z,3.60
2022-08-16T22:11:25.820Z,3.42
2022-08-16T22:13:57.624Z,4.38
2022-08-16T22:16:32.931Z,3.78
2022-08-16T22:19:01.512Z,4.32
2022-08-16T22:21:29.401Z,4.57
2022-08-16T22:23:58.800Z,4.07
2022-08-16T22:26:32.487Z,4.13
2022-08-16T22:29:06.995Z,5.05
2022-08-16T22:31:34.777Z,4.35
2022-08-16T22:34:02.403Z,4.95
2022-08-16T22:36:31.549Z,4.47
2022-08-16T22:39:00.971Z,4.63
2022-08-16T22:41:31.849Z,4.30
2022-08-16T22:43:59.926Z,4.85
2022-08-16T22:46:26.970Z,4.93
2022-08-16T22:48:54.509Z,4.43
2022-08-16T22:51:24.330Z,4.45
2022-08-16T22:53:52.137Z,4.25
2022-08-16T22:56:20.576Z,4.38
2022-08-16T22:58:47.874Z,4.50
2022-08-16T23:01:17.737Z,5.50
2022-08-16T23:03:44.807Z,4.20
2022-08-16T23:06:13.149Z,3.90
2022-08-16T23:08:42.271Z,4.10
2022-08-16T23:11:13.185Z,3.95
2022-08-16T23:13:50.102Z,4.60
2022-08-16T23:16:25.077Z,4.35
2022-08-16T23:19:04.066Z,4.22
2022-08-16T23:21:31.391Z,4.57
2022-08-16T23:23:58.412Z,4.28
2022-08-16T23:26:47.204Z,5.32
2022-08-16T23:29:24.832Z,4.38
2022-08-16T23:32:11.540Z,4.40
2022-08-16T23:34:38.509Z,5.20
2022-08-16T23:37:06.720Z,4.22
2022-08-16T23:39:34.557Z,4.97
2022-08-16T23:42:02.061Z,4.45
2022-08-16T23:44:56.186Z,4.30
2022-08-16T23:47:15.577Z,4.50
2022-08-16T23:49:57.445Z,4.22
2022-08-16T23:52:53.986Z,4.95
2022-08-16T23:55:17.245Z,4.30
2022-08-16T23:57:44.667Z,4.00
